Time;durP1;ratioP1;P1;durP2;ratioP2;P2;SDS_P1;SDS_P2;PMS_P1;PMS_P2;Temp;Humidity;BMP_temperature;BMP_pressure;BME280_temperature;BME280_humidity;BME280_pressure;Samples;Min_cycle;Max_cycle;Signal;HPM_P1;HPM_P2
2023/10/20 00:00:14;;;;;;;;;;;15.00;99.90;;;;;;5116097;27;20009;-83
2023/10/20 00:02:42;;;;;;;;;;;15.00;99.90;;;;;;5119307;27;19994;-81
2023/10/20 00:05:10;;;;;;;;;;;15.00;99.90;;;;;;5121332;27;20475;-83
2023/10/20 00:07:36;;;;;;;;;;;15.00;99.90;;;;;;5114767;27;19975;-81
2023/10/20 00:10:03;;;;;;;;;;;15.00;99.90;;;;;;5116098;27;19999;-80
2023/10/20 00:12:30;;;;;;;;;;;15.00;99.90;;;;;;5118005;27;20033;-81
2023/10/20 00:14:57;;;;;;;;;;;15.00;99.90;;;;;;5114105;27;19979;-80
2023/10/20 00:17:23;;;;;;;;;;;15.00;99.90;;;;;;5115543;27;20120;-81
2023/10/20 00:19:52;;;;;;;;;;;15.00;99.90;;;;;;5116371;27;19982;-81
2023/10/20 00:22:18;;;;;;;;;;;15.00;99.90;;;;;;5120947;27;20010;-81
2023/10/20 00:24:45;;;;;;;;;;;14.90;99.90;;;;;;5123432;27;20069;-80
2023/10/20 00:27:13;;;;;;;;;;;15.00;99.90;;;;;;5120982;27;19982;-81
2023/10/20 00:29:40;;;;;;;;;;;14.90;99.90;;;;;;5120529;27;20006;-82
2023/10/20 00:32:07;;;;;;;;;;;15.00;99.90;;;;;;5124646;27;19998;-82
2023/10/20 00:34:33;;;;;;;;;;;14.90;99.90;;;;;;5125021;27;19975;-82
2023/10/20 00:37:01;;;;;;;;;;;15.00;99.90;;;;;;5117853;27;20000;-82
2023/10/20 00:39:29;;;;;;;;;;;14.90;99.90;;;;;;5123840;27;20028;-83
2023/10/20 00:41:56;;;;;;;;;;;14.90;99.90;;;;;;5121935;27;20368;-83
2023/10/20 00:44:22;;;;;;;;;;;14.90;99.90;;;;;;5123567;27;19978;-83
2023/10/20 00:46:49;;;;;;;;;;;14.90;99.90;;;;;;5120100;27;20018;-83
2023/10/20 00:49:16;;;;;;;;;;;14.90;99.90;;;;;;5123987;27;20041;-83
2023/10/20 00:51:44;;;;;;;;;;;14.90;99.90;;;;;;5123318;27;20093;-82
2023/10/20 00:54:13;;;;;;;;;;;14.90;99.90;;;;;;5127347;27;20452;-83
2023/10/20 00:56:41;;;;;;;;;;;14.90;99.90;;;;;;5127670;27;20010;-83
2023/10/20 00:59:08;;;;;;;;;;;14.90;99.90;;;;;;5126531;27;20526;-83
2023/10/20 01:01:35;;;;;;;;;;;14.90;99.90;;;;;;5124006;27;19994;-84
2023/10/20 01:04:02;;;;;;;;;;;14.90;99.90;;;;;;5123874;27;20008;-83
2023/10/20 01:06:29;;;;;;;;;;;14.90;99.90;;;;;;5120463;27;19982;-83
2023/10/20 01:08:56;;;;;;;;;;;14.90;99.90;;;;;;5123520;27;19978;-83
2023/10/20 01:11:24;;;;;;;;;;;14.90;99.90;;;;;;5125335;27;20022;-83
2023/10/20 01:13:51;;;;;;;;;;;14.90;99.90;;;;;;5125249;27;20375;-83
2023/10/20 01:16:18;;;;;;;;;;;14.90;99.90;;;;;;5124520;27;20037;-83
2023/10/20 01:18:45;;;;;;;;;;;14.90;99.90;;;;;;5124480;27;19978;-84
2023/10/20 01:21:11;;;;;;;;;;;14.90;99.90;;;;;;5127702;27;19986;-83
2023/10/20 01:23:38;;;;;;;;;;;14.80;99.90;;;;;;5122190;27;20082;-82
2023/10/20 01:26:07;;;;;;;;;;;14.80;99.90;;;;;;5129670;27;20326;-82
2023/10/20 01:28:34;;;;;;;;;;;14.90;99.90;;;;;;5124110;27;19981;-81
2023/10/20 01:31:00;;;;;;;;;;;14.80;99.90;;;;;;5122101;27;20002;-82
2023/10/20 01:33:27;;;;;;;;;;;14.80;99.90;;;;;;5126842;27;19998;-82
2023/10/20 01:35:54;;;;;;;;;;;14.80;99.90;;;;;;5124512;27;20451;-83
2023/10/20 01:38:20;;;;;;;;;;;14.80;99.90;;;;;;5118734;27;19982;-82
2023/10/20 01:40:47;;;;;;;;;;;14.70;99.90;;;;;;5121384;27;19985;-84
2023/10/20 01:43:15;;;;;;;;;;;14.80;99.90;;;;;;5118037;27;20006;-84
2023/10/20 01:45:41;;;;;;;;;;;14.80;99.90;;;;;;5120661;27;20001;-83
2023/10/20 01:48:09;;;;;;;;;;;14.80;99.90;;;;;;5123783;27;20330;-82
2023/10/20 01:50:37;;;;;;;;;;;14.80;99.90;;;;;;5119359;27;19990;-83
2023/10/20 01:53:04;;;;;;;;;;;14.80;99.90;;;;;;5124009;27;20072;-82
2023/10/20 01:55:31;;;;;;;;;;;14.80;99.90;;;;;;5120193;27;20002;-82
2023/10/20 01:57:57;;;;;;;;;;;14.80;99.90;;;;;;5116418;27;19985;-82
2023/10/20 02:00:26;;;;;;;;;;;14.80;99.90;;;;;;5121580;27;19982;-83
2023/10/20 02:02:52;;;;;;;;;;;14.80;99.90;;;;;;5116771;27;19995;-83
2023/10/20 02:05:19;;;;;;;;;;;14.70;99.90;;;;;;5118964;27;19987;-81
2023/10/20 02:07:46;;;;;;;;;;;14.70;99.90;;;;;;5120830;27;20021;-81
2023/10/20 02:10:12;;;;;;;;;;;14.70;99.90;;;;;;5113626;27;19982;-82
2023/10/20 02:12:39;;;;;;;;;;;14.80;99.90;;;;;;5115644;28;20057;-81
2023/10/20 02:15:06;;;;;;;;;;;14.70;99.90;;;;;;5123116;28;20763;-81
2023/10/20 02:17:34;;;;;;;;;;;14.70;99.90;;;;;;5114526;27;20001;-82
2023/10/20 02:20:01;;;;;;;;;;;14.70;99.90;;;;;;5120416;27;19989;-82
2023/10/20 02:22:28;;;;;;;;;;;14.70;99.90;;;;;;5114567;27;20637;-81
2023/10/20 02:24:54;;;;;;;;;;;14.80;99.90;;;;;;5117645;27;20714;-82
2023/10/20 02:27:21;;;;;;;;;;;14.70;99.90;;;;;;5118022;27;19974;-82
2023/10/20 02:29:47;;;;;;;;;;;14.70;99.90;;;;;;5121916;27;19978;-81
2023/10/20 02:32:14;;;;;;;;;;;14.70;99.90;;;;;;5115882;27;20080;-80
2023/10/20 02:34:42;;;;;;;;;;;14.70;99.90;;;;;;5120450;27;20030;-81
2023/10/20 02:37:11;;;;;;;;;;;14.70;99.90;;;;;;5114506;27;19989;-81
2023/10/20 02:39:38;;;;;;;;;;;14.70;99.90;;;;;;5114323;27;19986;-82
2023/10/20 02:42:05;;;;;;;;;;;14.70;99.90;;;;;;5124600;27;20045;-82
2023/10/20 02:44:31;;;;;;;;;;;14.70;99.90;;;;;;5123130;27;20004;-81
2023/10/20 02:46:58;;;;;;;;;;;14.70;99.90;;;;;;5124374;27;20017;-80
2023/10/20 02:49:25;;;;;;;;;;;14.60;99.90;;;;;;5129339;27;20085;-80
2023/10/20 02:51:53;;;;;;;;;;;14.60;99.90;;;;;;5128519;27;20033;-81
2023/10/20 02:54:20;;;;;;;;;;;14.70;99.90;;;;;;5120864;27;19979;-83
2023/10/20 02:56:46;;;;;;;;;;;14.70;99.90;;;;;;5128818;27;20000;-83
2023/10/20 02:59:13;;;;;;;;;;;14.60;99.90;;;;;;5121640;27;19982;-83
2023/10/20 03:01:40;;;;;;;;;;;14.60;99.90;;;;;;5122708;27;20002;-82
2023/10/20 03:04:07;;;;;;;;;;;14.60;99.90;;;;;;5119117;27;20081;-82
2023/10/20 03:06:34;;;;;;;;;;;14.70;99.90;;;;;;5127217;27;19970;-83
2023/10/20 03:09:02;;;;;;;;;;;14.60;99.90;;;;;;5124146;27;20426;-82
2023/10/20 03:11:29;;;;;;;;;;;14.60;99.90;;;;;;5122155;27;20019;-84
2023/10/20 03:13:56;;;;;;;;;;;14.60;99.90;;;;;;5121583;27;20043;-83
2023/10/20 03:16:23;;;;;;;;;;;14.60;99.90;;;;;;5124494;27;19998;-83
2023/10/20 03:18:50;;;;;;;;;;;14.60;99.90;;;;;;5118671;27;19978;-83
2023/10/20 03:21:18;;;;;;;;;;;14.60;99.90;;;;;;5126030;27;19982;-83
2023/10/20 03:23:44;;;;;;;;;;;14.60;99.90;;;;;;5126842;27;20054;-83
2023/10/20 03:26:12;;;;;;;;;;;14.60;99.90;;;;;;5123552;27;19985;-84
2023/10/20 03:28:39;;;;;;;;;;;14.60;99.90;;;;;;5126105;27;19982;-83
2023/10/20 03:31:05;;;;;;;;;;;14.60;99.90;;;;;;5119350;27;20006;-83
2023/10/20 03:33:32;;;;;;;;;;;14.60;99.90;;;;;;5121748;27;20005;-83
2023/10/20 03:35:59;;;;;;;;;;;14.60;99.90;;;;;;5119415;27;19989;-82
2023/10/20 03:38:26;;;;;;;;;;;14.60;99.90;;;;;;5125559;27;20004;-82
2023/10/20 03:40:52;;;;;;;;;;;14.60;99.90;;;;;;5125234;27;19986;-81
2023/10/20 03:43:23;;;;;;;;;;;14.60;99.90;;;;;;5117696;27;20113;-82
2023/10/20 03:45:51;;;;;;;;;;;14.60;99.90;;;;;;5121657;27;20002;-82
2023/10/20 03:48:19;;;;;;;;;;;14.60;99.90;;;;;;5116205;27;20059;-82
2023/10/20 03:50:46;;;;;;;;;;;14.60;99.90;;;;;;5120073;27;20725;-85
2023/10/20 03:53:18;;;;;;;;;;;14.60;99.90;;;;;;5121843;27;19990;-85
2023/10/20 03:55:45;;;;;;;;;;;14.50;99.90;;;;;;5117399;27;20348;-84
2023/10/20 03:58:11;;;;;;;;;;;14.60;99.90;;;;;;5121480;27;19979;-84
2023/10/20 04:00:42;;;;;;;;;;;14.50;99.90;;;;;;5114808;27;20551;-85
2023/10/20 04:03:09;;;;;;;;;;;14.50;99.90;;;;;;5112988;27;20029;-82
2023/10/20 04:05:35;;;;;;;;;;;14.50;99.90;;;;;;5121977;27;19981;-84
2023/10/20 04:08:05;;;;;;;;;;;14.50;99.90;;;;;;5119617;27;19978;-85
2023/10/20 04:10:32;;;;;;;;;;;14.50;99.90;;;;;;5118097;27;19974;-84
2023/10/20 04:13:01;;;;;;;;;;;14.50;99.90;;;;;;5116594;27;20498;-84
2023/10/20 04:15:32;;;;;;;;;;;14.50;99.90;;;;;;5115939;27;20044;-83
2023/10/20 04:18:00;;;;;;;;;;;14.50;99.90;;;;;;5116144;27;20028;-82
2023/10/20 04:20:27;;;;;;;;;;;14.50;99.90;;;;;;5116279;27;20069;-83
2023/10/20 04:22:54;;;;;;;;;;;14.50;99.90;;;;;;5117132;27;19999;-83
2023/10/20 04:25:21;;;;;;;;;;;14.50;99.90;;;;;;5121241;27;19986;-82
2023/10/20 04:27:56;;;;;;;;;;;14.50;99.90;;;;;;5120066;27;20544;-81
2023/10/20 04:58:16;;;;;;;;;;;14.50;99.90;;;;;;5065708;28;20395;-82
2023/10/20 05:00:43;;;;;;;;;;;14.40;99.90;;;;;;5065589;28;20085;-82
2023/10/20 05:03:22;;;;;;;;;;;14.40;99.90;;;;;;5086759;27;20155;-83
2023/10/20 05:05:58;;;;;;;;;;;14.40;99.90;;;;;;5116346;27;20053;-82
2023/10/20 05:08:25;;;;;;;;;;;14.40;99.90;;;;;;5115106;27;19978;-82
2023/10/20 05:10:53;;;;;;;;;;;14.40;99.90;;;;;;5120182;27;19981;-79
2023/10/20 05:13:22;;;;;;;;;;;14.30;99.90;;;;;;5116158;27;20002;-83
2023/10/20 05:15:50;;;;;;;;;;;14.30;99.90;;;;;;5119945;27;20001;-84
2023/10/20 05:18:17;;;;;;;;;;;14.30;99.90;;;;;;5118583;27;19978;-83
2023/10/20 05:20:45;;;;;;;;;;;14.40;99.90;;;;;;5118253;27;19982;-82
2023/10/20 05:23:14;;;;;;;;;;;14.40;99.90;;;;;;5110317;27;19999;-83
2023/10/20 05:25:45;;;;;;;;;;;14.30;99.90;;;;;;5118855;27;19999;-83
2023/10/20 05:28:12;;;;;;;;;;;14.30;99.90;;;;;;5115881;27;19978;-82
2023/10/20 05:30:42;;;;;;;;;;;14.30;99.90;;;;;;5118469;27;20002;-83
2023/10/20 05:33:09;;;;;;;;;;;14.30;99.90;;;;;;5114983;27;20438;-83
2023/10/20 05:35:36;;;;;;;;;;;14.30;99.90;;;;;;5115619;27;20362;-85
2023/10/20 05:38:02;;;;;;;;;;;14.30;99.90;;;;;;5121909;27;19985;-83
2023/10/20 05:40:30;;;;;;;;;;;14.30;99.90;;;;;;5116352;27;19997;-82
2023/10/20 05:42:57;;;;;;;;;;;14.30;99.90;;;;;;5117663;27;20478;-83
2023/10/20 05:45:24;;;;;;;;;;;14.30;99.90;;;;;;5116959;27;19978;-85
2023/10/20 05:47:51;;;;;;;;;;;14.30;99.90;;;;;;5122110;27;20028;-83
2023/10/20 05:50:18;;;;;;;;;;;14.30;99.90;;;;;;5121436;27;19986;-84
2023/10/20 05:52:44;;;;;;;;;;;14.30;99.90;;;;;;5115279;27;20002;-84
2023/10/20 05:55:11;;;;;;;;;;;14.30;99.90;;;;;;5115069;27;19983;-82
2023/10/20 05:57:39;;;;;;;;;;;14.30;99.90;;;;;;5118347;27;19978;-83
2023/10/20 06:00:06;;;;;;;;;;;14.30;99.90;;;;;;5120607;27;20004;-83
2023/10/20 06:02:34;;;;;;;;;;;14.20;99.90;;;;;;5110265;27;19994;-83
2023/10/20 06:05:02;;;;;;;;;;;14.20;99.90;;;;;;5112714;27;19982;-84
2023/10/20 06:07:29;;;;;;;;;;;14.20;99.90;;;;;;5120649;27;19975;-83
2023/10/20 06:09:55;;;;;;;;;;;14.20;99.90;;;;;;5113701;27;19978;-84
2023/10/20 06:12:22;;;;;;;;;;;14.20;99.90;;;;;;5114316;27;20005;-83
2023/10/20 06:14:50;;;;;;;;;;;14.20;99.90;;;;;;5116025;27;20012;-81
2023/10/20 06:17:18;;;;;;;;;;;14.20;99.90;;;;;;5109139;27;20039;-83
2023/10/20 06:19:46;;;;;;;;;;;14.20;99.90;;;;;;5109761;27;19974;-83
2023/10/20 06:22:12;;;;;;;;;;;14.20;99.90;;;;;;5110179;27;20040;-82
2023/10/20 06:24:39;;;;;;;;;;;14.20;99.90;;;;;;5111623;27;20600;-82
2023/10/20 06:27:06;;;;;;;;;;;14.20;99.90;;;;;;5116578;27;20032;-83
2023/10/20 06:29:43;;;;;;;;;;;14.20;99.90;;;;;;5113996;27;19979;-84
2023/10/20 06:32:22;;;;;;;;;;;14.20;99.90;;;;;;5116792;27;20002;-84
2023/10/20 06:34:49;;;;;;;;;;;14.20;99.90;;;;;;5112750;27;20395;-84
2023/10/20 06:37:24;;;;;;;;;;;14.20;99.90;;;;;;5115308;27;19978;-82
2023/10/20 06:39:51;;;;;;;;;;;14.20;99.90;;;;;;5117352;27;19978;-82
2023/10/20 06:42:17;;;;;;;;;;;14.20;99.90;;;;;;5113671;27;20002;-82
2023/10/20 06:44:44;;;;;;;;;;;14.20;99.90;;;;;;5117913;27;20065;-82
2023/10/20 06:47:12;;;;;;;;;;;14.20;99.90;;;;;;5112810;27;19995;-82
2023/10/20 06:49:38;;;;;;;;;;;14.10;99.90;;;;;;5108786;28;19979;-81
2023/10/20 06:52:05;;;;;;;;;;;14.20;99.90;;;;;;5113144;27;20002;-82
2023/10/20 06:54:32;;;;;;;;;;;14.20;99.90;;;;;;5116248;27;20058;-82
2023/10/20 06:57:00;;;;;;;;;;;14.10;99.90;;;;;;5112587;27;19978;-82
2023/10/20 06:59:27;;;;;;;;;;;14.20;99.90;;;;;;5116533;27;20022;-82
2023/10/20 07:01:57;;;;;;;;;;;14.10;99.90;;;;;;5112752;27;20519;-81
2023/10/20 07:04:26;;;;;;;;;;;14.10;99.90;;;;;;5108907;27;20285;-81
2023/10/20 07:06:53;;;;;;;;;;;14.10;99.90;;;;;;5123422;27;20396;-81
2023/10/20 07:09:20;;;;;;;;;;;14.10;99.90;;;;;;5109311;27;20272;-81
2023/10/20 07:11:48;;;;;;;;;;;14.10;99.90;;;;;;5113740;27;19990;-82
2023/10/20 07:14:14;;;;;;;;;;;14.10;99.90;;;;;;5120521;27;19978;-82
2023/10/20 07:16:41;;;;;;;;;;;14.10;99.90;;;;;;5112319;27;20101;-82
2023/10/20 07:19:08;;;;;;;;;;;14.10;99.90;;;;;;5120653;27;19978;-82
2023/10/20 07:21:36;;;;;;;;;;;14.10;99.90;;;;;;5110034;27;19978;-81
2023/10/20 07:24:03;;;;;;;;;;;14.10;99.90;;;;;;5119409;27;20053;-81
2023/10/20 07:26:30;;;;;;;;;;;14.10;99.90;;;;;;5114399;27;20094;-81
2023/10/20 07:28:57;;;;;;;;;;;14.10;99.90;;;;;;5119984;27;19978;-81
2023/10/20 07:31:23;;;;;;;;;;;14.10;99.90;;;;;;5115583;27;19994;-81
2023/10/20 07:33:51;;;;;;;;;;;14.10;99.90;;;;;;5115627;27;19995;-81
2023/10/20 07:36:17;;;;;;;;;;;14.10;99.90;;;;;;5122488;27;20053;-82
2023/10/20 07:38:45;;;;;;;;;;;14.10;99.90;;;;;;5115484;27;19974;-82
2023/10/20 07:41:12;;;;;;;;;;;14.10;99.90;;;;;;5120081;27;19986;-81
2023/10/20 07:43:39;;;;;;;;;;;14.10;99.90;;;;;;5115432;27;19998;-81
2023/10/20 07:46:06;;;;;;;;;;;14.10;99.90;;;;;;5121142;27;20002;-81
2023/10/20 07:48:33;;;;;;;;;;;14.10;99.90;;;;;;5119647;27;19981;-81
2023/10/20 07:51:00;;;;;;;;;;;14.10;99.90;;;;;;5114924;27;19982;-80
2023/10/20 07:53:27;;;;;;;;;;;14.10;99.90;;;;;;5121600;27;20025;-81
2023/10/20 07:55:55;;;;;;;;;;;14.00;99.90;;;;;;5122130;27;20344;-81
2023/10/20 07:58:22;;;;;;;;;;;14.00;99.90;;;;;;5115390;27;20636;-81
2023/10/20 08:00:49;;;;;;;;;;;14.10;99.90;;;;;;5114575;27;19997;-82
2023/10/20 08:03:16;;;;;;;;;;;14.10;99.90;;;;;;5117599;27;20562;-81
2023/10/20 08:05:42;;;;;;;;;;;14.10;99.90;;;;;;5113398;27;20357;-81
2023/10/20 08:08:09;;;;;;;;;;;14.10;99.90;;;;;;5117287;27;19983;-81
2023/10/20 08:10:37;;;;;;;;;;;14.00;99.90;;;;;;5112895;27;19997;-81
2023/10/20 08:13:05;;;;;;;;;;;14.10;99.90;;;;;;5115276;27;19998;-82
2023/10/20 08:15:36;;;;;;;;;;;14.10;99.90;;;;;;5115733;27;20446;-81
2023/10/20 08:18:03;;;;;;;;;;;14.00;99.90;;;;;;5118690;27;20133;-81
2023/10/20 08:20:30;;;;;;;;;;;14.00;99.90;;;;;;5111874;27;19983;-81
2023/10/20 08:22:57;;;;;;;;;;;14.10;99.90;;;;;;5115630;27;20000;-81
2023/10/20 08:25:23;;;;;;;;;;;14.10;99.90;;;;;;5116030;27;19978;-81
2023/10/20 08:27:50;;;;;;;;;;;14.10;99.90;;;;;;5115140;27;19974;-81
2023/10/20 08:30:19;;;;;;;;;;;14.10;99.90;;;;;;5118273;27;19978;-81
2023/10/20 08:32:46;;;;;;;;;;;14.10;99.90;;;;;;5117028;27;19998;-81
2023/10/20 08:35:14;;;;;;;;;;;14.00;99.90;;;;;;5116106;27;20682;-81
2023/10/20 08:37:40;;;;;;;;;;;14.10;99.90;;;;;;5111505;27;20074;-81
2023/10/20 08:40:10;;;;;;;;;;;14.10;99.90;;;;;;5119997;27;20219;-80
2023/10/20 08:42:38;;;;;;;;;;;14.10;99.90;;;;;;5111866;27;19991;-79
2023/10/20 08:45:07;;;;;;;;;;;14.10;99.90;;;;;;5116737;27;20498;-80
2023/10/20 08:47:36;;;;;;;;;;;14.10;99.90;;;;;;5110811;27;20001;-81
2023/10/20 08:50:05;;;;;;;;;;;14.10;99.90;;;;;;5113543;27;20273;-80
2023/10/20 08:52:33;;;;;;;;;;;14.10;99.90;;;;;;5115118;27;20323;-81
2023/10/20 08:54:59;;;;;;;;;;;14.10;99.90;;;;;;5121255;27;19978;-81
2023/10/20 08:57:27;;;;;;;;;;;14.10;99.90;;;;;;5117309;27;19978;-81
2023/10/20 08:59:54;;;;;;;;;;;14.10;99.90;;;;;;5113413;27;19982;-81
2023/10/20 09:02:21;;;;;;;;;;;14.10;99.90;;;;;;5112842;27;19998;-81
2023/10/20 09:04:51;;;;;;;;;;;14.10;99.90;;;;;;5112703;27;20435;-80
2023/10/20 09:07:18;;;;;;;;;;;14.10;99.90;;;;;;5121205;27;19982;-81
2023/10/20 09:09:45;;;;;;;;;;;14.10;99.90;;;;;;5114020;27;20452;-81
2023/10/20 09:12:13;;;;;;;;;;;14.10;99.90;;;;;;5114787;27;20001;-81
2023/10/20 09:14:40;;;;;;;;;;;14.10;99.90;;;;;;5116722;27;19997;-81
2023/10/20 09:17:08;;;;;;;;;;;14.10;99.90;;;;;;5116235;27;20045;-81
2023/10/20 09:19:35;;;;;;;;;;;14.10;99.90;;;;;;5118875;27;19985;-81
2023/10/20 09:22:03;;;;;;;;;;;14.10;99.90;;;;;;5121950;27;20455;-81
2023/10/20 09:24:31;;;;;;;;;;;14.20;99.90;;;;;;5119293;27;19975;-81
2023/10/20 09:26:59;;;;;;;;;;;14.20;99.90;;;;;;5121022;27;19978;-81
2023/10/20 09:29:27;;;;;;;;;;;14.10;99.90;;;;;;5117591;27;19979;-81
2023/10/20 09:31:54;;;;;;;;;;;14.20;99.90;;;;;;5112791;27;20057;-81
2023/10/20 09:34:21;;;;;;;;;;;14.20;99.90;;;;;;5116629;27;19991;-81
2023/10/20 09:36:49;;;;;;;;;;;14.20;99.90;;;;;;5119294;27;19975;-81
2023/10/20 09:39:25;;;;;;;;;;;14.20;99.90;;;;;;5119259;27;19979;-80
2023/10/20 09:41:56;;;;;;;;;;;14.20;99.90;;;;;;5114583;27;20299;-81
2023/10/20 09:44:26;;;;;;;;;;;14.20;99.90;;;;;;5116469;27;19978;-81
2023/10/20 09:46:54;;;;;;;;;;;14.20;99.90;;;;;;5118673;27;19995;-81
2023/10/20 09:49:22;;;;;;;;;;;14.20;99.90;;;;;;5117936;27;19986;-81
2023/10/20 09:51:49;;;;;;;;;;;14.20;99.90;;;;;;5116393;27;20421;-80
2023/10/20 09:54:19;;;;;;;;;;;14.30;99.90;;;;;;5115224;27;20085;-81
2023/10/20 09:56:46;;;;;;;;;;;14.30;99.90;;;;;;5118512;27;19975;-81
2023/10/20 09:59:17;;;;;;;;;;;14.30;99.90;;;;;;5116302;27;20080;-80
2023/10/20 10:01:44;;;;;;;;;;;14.30;99.90;;;;;;5108853;27;20419;-81
2023/10/20 10:04:11;;;;;;;;;;;14.30;99.90;;;;;;5110715;27;19979;-81
2023/10/20 10:06:38;;;;;;;;;;;14.30;99.90;;;;;;5114998;27;20089;-81
2023/10/20 10:09:05;;;;;;;;;;;14.30;99.90;;;;;;5115728;27;20063;-81
2023/10/20 10:11:39;;;;;;;;;;;14.40;99.90;;;;;;5115968;27;19979;-81
2023/10/20 10:14:06;;;;;;;;;;;14.40;99.90;;;;;;5117124;27;19994;-81
2023/10/20 10:16:37;;;;;;;;;;;14.40;99.90;;;;;;5115755;27;20450;-81
2023/10/20 10:19:08;;;;;;;;;;;14.40;99.90;;;;;;5115150;27;20351;-81
2023/10/20 10:21:37;;;;;;;;;;;14.40;99.90;;;;;;5114256;27;20535;-82
2023/10/20 10:24:08;;;;;;;;;;;14.50;99.90;;;;;;5110342;27;20087;-81
2023/10/20 10:26:44;;;;;;;;;;;14.50;99.90;;;;;;5116267;27;19989;-81
2023/10/20 10:29:10;;;;;;;;;;;14.50;99.90;;;;;;5118427;27;19982;-82
2023/10/20 10:31:37;;;;;;;;;;;14.50;99.90;;;;;;5112974;27;20519;-81
2023/10/20 10:34:04;;;;;;;;;;;14.50;99.90;;;;;;5113646;27;20375;-82
2023/10/20 10:36:31;;;;;;;;;;;14.50;99.90;;;;;;5117291;27;20019;-81
2023/10/20 10:38:58;;;;;;;;;;;14.60;99.90;;;;;;5116616;27;19983;-81
2023/10/20 10:41:25;;;;;;;;;;;14.60;99.90;;;;;;5114868;28;19978;-81
2023/10/20 10:43:54;;;;;;;;;;;14.60;99.90;;;;;;5114166;27;19982;-81
2023/10/20 10:46:21;;;;;;;;;;;14.60;99.90;;;;;;5118596;27;20002;-82
2023/10/20 10:48:48;;;;;;;;;;;14.60;99.90;;;;;;5109317;27;19978;-81
2023/10/20 10:51:15;;;;;;;;;;;14.60;99.90;;;;;;5114841;27;20073;-82
2023/10/20 10:53:43;;;;;;;;;;;14.60;99.90;;;;;;5112077;27;20005;-81
2023/10/20 10:56:10;;;;;;;;;;;14.70;99.90;;;;;;5116729;27;20405;-82
2023/10/20 10:58:36;;;;;;;;;;;14.70;99.90;;;;;;5115820;27;19982;-81
2023/10/20 11:01:04;;;;;;;;;;;14.70;99.90;;;;;;5115693;27;19998;-82
2023/10/20 11:03:31;;;;;;;;;;;14.70;99.90;;;;;;5115865;27;19931;-81
2023/10/20 11:05:58;;;;;;;;;;;14.70;99.90;;;;;;5121268;27;19927;-80
2023/10/20 11:08:28;;;;;;;;;;;14.80;99.90;;;;;;5123606;27;20401;-80
2023/10/20 11:10:59;;;;;;;;;;;14.80;99.90;;;;;;5120365;27;19962;-80
2023/10/20 11:13:28;;;;;;;;;;;14.80;99.90;;;;;;5117376;27;19986;-80
2023/10/20 11:15:54;;;;;;;;;;;14.80;99.90;;;;;;5120633;27;19984;-81
2023/10/20 11:18:22;;;;;;;;;;;14.90;99.90;;;;;;5122327;27;19982;-81
2023/10/20 11:20:49;;;;;;;;;;;14.90;99.90;;;;;;5119878;27;19975;-80
2023/10/20 11:23:19;;;;;;;;;;;14.90;99.90;;;;;;5118628;27;20077;-81
2023/10/20 11:25:47;;;;;;;;;;;15.00;99.90;;;;;;5116142;27;20023;-80
2023/10/20 11:28:14;;;;;;;;;;;15.00;99.90;;;;;;5118187;27;20118;-81
2023/10/20 11:30:42;;;;;;;;;;;15.00;99.90;;;;;;5116345;27;19999;-80
2023/10/20 11:33:10;;;;;;;;;;;15.10;99.90;;;;;;5118289;27;20016;-80
2023/10/20 11:35:38;;;;;;;;;;;15.10;99.90;;;;;;5117761;27;19982;-80
2023/10/20 11:38:05;;;;;;;;;;;15.10;99.90;;;;;;5117433;27;19978;-80
2023/10/20 11:40:30;;;;;;;;;;;15.20;99.90;;;;;;5120313;27;19978;-81
2023/10/20 11:42:57;;;;;;;;;;;15.20;99.90;;;;;;5112239;27;20486;-80
2023/10/20 11:45:24;;;;;;;;;;;15.30;99.90;;;;;;5121653;27;19986;-80
2023/10/20 11:47:51;;;;;;;;;;;15.30;99.90;;;;;;5118907;27;19981;-80
2023/10/20 11:50:18;;;;;;;;;;;15.40;99.90;;;;;;5115432;27;20544;-80
2023/10/20 11:52:47;;;;;;;;;;;15.40;99.90;;;;;;5114782;27;19998;-81
2023/10/20 11:55:13;;;;;;;;;;;15.50;99.90;;;;;;5119490;27;19994;-80
2023/10/20 11:57:40;;;;;;;;;;;15.60;99.90;;;;;;5114755;27;19997;-80
2023/10/20 12:00:09;;;;;;;;;;;15.60;99.90;;;;;;5113541;27;19978;-80
2023/10/20 12:02:35;;;;;;;;;;;15.70;99.90;;;;;;5119440;27;19998;-81
2023/10/20 12:05:02;;;;;;;;;;;15.70;99.90;;;;;;5117810;27;20389;-80
2023/10/20 12:07:29;;;;;;;;;;;15.80;99.90;;;;;;5117390;27;20018;-80
2023/10/20 12:09:57;;;;;;;;;;;15.80;99.90;;;;;;5116092;27;20426;-81
2023/10/20 12:12:23;;;;;;;;;;;15.80;99.90;;;;;;5117853;27;20002;-80
2023/10/20 12:14:50;;;;;;;;;;;15.90;99.90;;;;;;5117648;27;19990;-80
2023/10/20 12:17:17;;;;;;;;;;;15.90;99.90;;;;;;5117870;27;19994;-80
2023/10/20 12:19:44;;;;;;;;;;;15.90;99.90;;;;;;5115988;27;20459;-80
2023/10/20 12:22:10;;;;;;;;;;;15.80;99.90;;;;;;5115505;27;20737;-81
2023/10/20 12:24:37;;;;;;;;;;;15.90;99.90;;;;;;5112654;27;19974;-81
2023/10/20 12:27:05;;;;;;;;;;;15.90;99.90;;;;;;5119909;27;20011;-82
2023/10/20 12:29:33;;;;;;;;;;;15.90;99.90;;;;;;5114065;27;20011;-79
2023/10/20 12:32:00;;;;;;;;;;;15.90;99.90;;;;;;5116862;27;19998;-80
2023/10/20 12:34:27;;;;;;;;;;;15.90;99.90;;;;;;5119174;27;20001;-80
2023/10/20 12:36:54;;;;;;;;;;;15.90;99.90;;;;;;5117823;27;20073;-80
2023/10/20 12:39:21;;;;;;;;;;;15.90;99.90;;;;;;5123160;27;20443;-80
2023/10/20 12:41:47;;;;;;;;;;;15.90;99.90;;;;;;5115045;27;20462;-80
2023/10/20 12:44:17;;;;;;;;;;;15.90;99.90;;;;;;5118310;27;19989;-81
2023/10/20 12:46:44;;;;;;;;;;;15.90;99.90;;;;;;5114320;27;20005;-80
2023/10/20 12:49:10;;;;;;;;;;;15.90;99.90;;;;;;5115028;27;20471;-80
2023/10/20 12:51:39;;;;;;;;;;;15.90;99.90;;;;;;5118607;27;19985;-79
2023/10/20 12:54:07;;;;;;;;;;;16.00;99.90;;;;;;5114205;27;20414;-80
2023/10/20 12:56:33;;;;;;;;;;;16.00;99.90;;;;;;5113903;27;19985;-80
2023/10/20 12:59:00;;;;;;;;;;;16.00;99.90;;;;;;5117859;27;19986;-78
2023/10/20 13:01:28;;;;;;;;;;;16.00;99.90;;;;;;5114498;27;20085;-81
2023/10/20 13:03:55;;;;;;;;;;;16.00;99.90;;;;;;5116836;27;19982;-81
2023/10/20 13:06:21;;;;;;;;;;;16.00;99.90;;;;;;5118335;27;20648;-79
2023/10/20 13:08:49;;;;;;;;;;;16.00;99.90;;;;;;5116898;27;19978;-81
2023/10/20 13:11:15;;;;;;;;;;;16.10;99.90;;;;;;5117664;27;20459;-81
2023/10/20 13:13:42;;;;;;;;;;;16.10;99.90;;;;;;5115093;27;20359;-78
2023/10/20 13:16:08;;;;;;;;;;;16.10;99.90;;;;;;5118177;27;19994;-81
2023/10/20 13:18:36;;;;;;;;;;;16.10;99.90;;;;;;5120118;27;20369;-81
2023/10/20 13:21:05;;;;;;;;;;;16.10;99.90;;;;;;5115747;27;19986;-80
2023/10/20 13:23:32;;;;;;;;;;;16.20;99.90;;;;;;5118949;27;19994;-81
2023/10/20 13:25:59;;;;;;;;;;;16.20;99.80;;;;;;5119246;27;19986;-78
2023/10/20 13:28:25;;;;;;;;;;;16.20;99.80;;;;;;5121190;27;19983;-80
2023/10/20 13:30:59;;;;;;;;;;;16.20;99.70;;;;;;5115593;27;20388;-79
2023/10/20 13:33:26;;;;;;;;;;;16.20;99.50;;;;;;5119617;27;20005;-81
2023/10/20 13:35:54;;;;;;;;;;;16.20;99.50;;;;;;5117198;27;20401;-81
2023/10/20 13:38:21;;;;;;;;;;;16.20;99.50;;;;;;5120765;27;19978;-82
2023/10/20 13:40:49;;;;;;;;;;;16.20;99.40;;;;;;5118491;27;19978;-79
2023/10/20 13:43:16;;;;;;;;;;;16.20;99.30;;;;;;5102478;27;20099;-81
2023/10/20 13:45:42;;;;;;;;;;;16.30;99.20;;;;;;5112509;27;19995;-81
2023/10/20 13:48:09;;;;;;;;;;;16.20;99.10;;;;;;5118062;27;20320;-81
2023/10/20 13:50:39;;;;;;;;;;;16.20;98.90;;;;;;5117357;27;20335;-80
2023/10/20 13:53:09;;;;;;;;;;;16.30;98.90;;;;;;5114785;27;19998;-81
2023/10/20 13:55:36;;;;;;;;;;;16.30;98.90;;;;;;5113994;27;20262;-81
2023/10/20 13:58:03;;;;;;;;;;;16.30;98.80;;;;;;5117780;27;20464;-82
2023/10/20 14:00:33;;;;;;;;;;;16.30;98.90;;;;;;5113475;27;19994;-83
2023/10/20 14:03:01;;;;;;;;;;;16.30;98.80;;;;;;5114679;27;20025;-83
2023/10/20 14:05:29;;;;;;;;;;;16.30;98.80;;;;;;5117730;27;20001;-80
2023/10/20 14:07:57;;;;;;;;;;;16.30;98.70;;;;;;5120264;27;19986;-82
2023/10/20 14:10:26;;;;;;;;;;;16.30;98.70;;;;;;5117461;27;20135;-80
2023/10/20 14:12:52;;;;;;;;;;;16.30;98.80;;;;;;5117325;27;20529;-81
2023/10/20 14:15:19;;;;;;;;;;;16.30;98.70;;;;;;5116749;27;20032;-79
2023/10/20 14:17:46;;;;;;;;;;;16.30;98.70;;;;;;5117391;27;20011;-82
2023/10/20 14:20:12;;;;;;;;;;;16.30;98.60;;;;;;5118498;27;20061;-84
2023/10/20 14:22:39;;;;;;;;;;;16.30;98.60;;;;;;5114093;27;19994;-80
2023/10/20 14:25:06;;;;;;;;;;;16.30;98.50;;;;;;5113180;27;20818;-80
2023/10/20 14:27:34;;;;;;;;;;;16.40;98.60;;;;;;5111903;27;20120;-82
2023/10/20 14:30:01;;;;;;;;;;;16.30;98.50;;;;;;5115877;27;20055;-81
2023/10/20 14:32:28;;;;;;;;;;;16.30;98.40;;;;;;5116797;27;20537;-82
2023/10/20 14:34:54;;;;;;;;;;;16.30;98.40;;;;;;5113233;27;20033;-83
2023/10/20 14:37:21;;;;;;;;;;;16.30;98.40;;;;;;5121481;27;20362;-82
2023/10/20 14:39:48;;;;;;;;;;;16.30;98.40;;;;;;5118184;27;19990;-82
2023/10/20 14:42:15;;;;;;;;;;;16.30;98.50;;;;;;5123149;27;19998;-81
2023/10/20 14:44:43;;;;;;;;;;;16.30;98.40;;;;;;5119962;27;20480;-82